Souris, Canada
Current Conditions -  °F | °C
As of 2:17 PM on Thursday 29 Jan 2015 (Local Time) from CYYG Reporting Station
Broken Clouds Broken Clouds  
Wind Chill: 15°   Ceiling: 1400
Heat Index: 21°   Visibility: 15mi
Dew Point: 14°   Wind: 5mph
Humidity: 74%   Direction: 20°NNE
Pressure: 30.22"   Gusts: NA
Location:  46.35°N, 62.25°W
Report Text: CYYG 291817Z 02004KT 270V090 15SM BKN014 M06/M10 A3022 RMK SC5 SLP237
Loading
Personal Weather Stations






























Interactive Weather Map New forecast layout! Learn more

10-Day Weather Forecast

Advertisements
Track Severe Weather on mobile